Strona główna
METAR-TAF:

METAR-TAF

Lotnisko :

Hazleton, Pensylwania, Stany Zjednoczone

Szerokość geograficzna: 40-59-12N, Długość geograficzna: 075-59-42W, wysokość: 489 m

Aktualna obserwacja pogody

Raport powstał 12 minut temu, godzina 12:15 UTC
Wiatr 3 kt od zachodnio-południowy zachód
Temperatura 21°C
Wilgotność 94%
Ciśnienie 1012 hPa
Widzialność: 16.1 km
Zachmurzenie całkowite na wysokości 700 ft

METAR: KHZL 251215Z AUTO 24003KT 10SM OVC007 21/20 A2989 RMK AO2

czas: 08:27 (12:27 UTC)


TAF: brakujący

Obserwacja i prognoza pogody dla ponad 4000 lotnisk (raport METAR i TAF).

Dostępne stacje oznaczono żółtymi i czerwonymi punktami na mapie.

Najedź kursorem aby zobaczyć nazwę stacji.

Kliknij aby zobaczyć obserwacje i prognozy pogody.

Aby zmienić mapę: kliknij na zielony przycisk z czarnym krzyżykiem, aby powiększyć; na zielony przycisk z myślnikiem, aby pomniejszyć; na zielone strzałki, aby przejść do map sąsiednich.


METAR-TAF: